Kingfisher, Oklahoma
Current Conditions -  °F | °C
As of 9:55 AM on Sunday 21 Dec 2014 (Local Time) from KRCE Reporting Station
Haze Haze  
Wind Chill: 36°   Ceiling: 800
Heat Index: 45°   Visibility: 4mi
Dew Point: 45°   Wind: 21mph
Humidity: 100%   Direction: 170°S
Pressure: 29.97"   Gusts: 26mph
Location:  35.86°N, 97.93°W
Report Text: KRCE 211555Z AUTO 17018G23KT 4SM BR BKN008 07/07 A2997 RMK AO2
Loading
Personal Weather Stations






























Interactive Weather Map New forecast layout! Learn more

10-Day Weather Forecast

Advertisements
Track Severe Weather on mobile